Terminal Aerodrome Forecast
Issued by NWS Jackson, KY

Home | Current Version | Previous Version | Text Only | Print | Product List | Glossary On
Versions: 1 2 3 4 5 6 7 8 9 10 11 12 13 14 15 16 17
000
FTUS43 KJKL 240100 AAA
TAFLOZ
TAF AMD
KLOZ 240118Z 2401/2424 14004KT 5SM SHRA BR SCT020 OVC035
     FM240900 16007KT P6SM VCSH SCT010 OVC100
     FM241300 17008KT 5SM SHRA BR SCT010 OVC035
     FM241800 23014G25KT P6SM VCSH BKN015=

USA.gov is the U.S. government's official web portal to all federal, state and local government web resources and services.